Time;durP1;ratioP1;P1;durP2;ratioP2;P2;SDS_P1;SDS_P2;PMS_P1;PMS_P2;Temp;Humidity;BMP_temperature;BMP_pressure;BME280_temperature;BME280_humidity;BME280_pressure;Samples;Min_cycle;Max_cycle;Signal;HPM_P1;HPM_P2
2022/07/12 00:00:36;;;;;;;;;;;23.50;47.70;;;;;;5013782;28;19941;-65
2022/07/12 00:03:01;;;;;;;;;;;23.50;47.80;;;;;;5013787;28;20366;-65
2022/07/12 00:05:27;;;;;;;;;;;23.50;47.70;;;;;;5013777;28;20299;-66
2022/07/12 00:07:52;;;;;;;;;;;23.50;47.50;;;;;;5013750;28;20317;-65
2022/07/12 00:10:18;;;;;;;;;;;23.50;47.60;;;;;;5013681;28;19984;-65
2022/07/12 00:12:43;;;;;;;;;;;23.40;47.60;;;;;;5013590;28;19913;-65
2022/07/12 00:15:10;;;;;;;;;;;23.40;47.60;;;;;;5013446;28;19909;-66
2022/07/12 00:17:35;;;;;;;;;;;23.50;47.40;;;;;;5013864;28;19914;-65
2022/07/12 00:20:01;;;;;;;;;;;23.40;47.50;;;;;;5013491;28;20384;-66
2022/07/12 00:22:28;;;;;;;;;;;23.40;47.50;;;;;;5013688;28;19976;-65
2022/07/12 00:24:54;;;;;;;;;;;23.40;47.50;;;;;;5013451;28;20376;-66
2022/07/12 00:27:19;;;;;;;;;;;23.40;47.30;;;;;;5013379;28;19910;-66
2022/07/12 00:29:45;;;;;;;;;;;23.50;47.20;;;;;;5013228;28;19921;-66
2022/07/12 00:32:11;;;;;;;;;;;23.40;47.10;;;;;;5012702;28;19920;-65
2022/07/12 00:34:36;;;;;;;;;;;23.50;46.80;;;;;;5013581;28;19916;-66
2022/07/12 00:37:02;;;;;;;;;;;23.50;46.80;;;;;;5013122;28;19916;-65
2022/07/12 00:39:27;;;;;;;;;;;23.50;46.50;;;;;;5013192;28;19914;-66
2022/07/12 00:41:53;;;;;;;;;;;23.50;45.90;;;;;;5013194;28;19951;-66
2022/07/12 00:44:18;;;;;;;;;;;23.50;46.10;;;;;;5012895;28;19937;-65
2022/07/12 00:46:45;;;;;;;;;;;23.50;46.60;;;;;;5013472;28;19913;-65
2022/07/12 00:49:15;;;;;;;;;;;23.40;46.20;;;;;;5012821;28;19992;-65
2022/07/12 00:51:43;;;;;;;;;;;23.30;46.50;;;;;;5013128;28;19913;-65
2022/07/12 00:54:09;;;;;;;;;;;23.30;46.60;;;;;;5012846;28;20008;-65
2022/07/12 00:56:35;;;;;;;;;;;23.30;46.30;;;;;;5012920;28;20016;-65
2022/07/12 00:59:01;;;;;;;;;;;23.20;46.70;;;;;;5012779;28;19910;-65
2022/07/12 01:01:26;;;;;;;;;;;23.20;46.70;;;;;;5012802;28;19932;-65
2022/07/12 01:03:52;;;;;;;;;;;23.20;46.60;;;;;;5012966;28;19913;-65
2022/07/12 01:06:21;;;;;;;;;;;23.20;46.40;;;;;;5012552;28;20301;-65
2022/07/12 01:08:46;;;;;;;;;;;23.30;46.40;;;;;;5013035;28;19973;-65
2022/07/12 01:11:12;;;;;;;;;;;23.40;46.30;;;;;;5012611;28;19914;-65
2022/07/12 01:13:38;;;;;;;;;;;23.10;45.70;;;;;;5012564;28;19920;-66
2022/07/12 01:16:05;;;;;;;;;;;23.10;46.50;;;;;;5012490;28;20069;-65
2022/07/12 01:18:31;;;;;;;;;;;23.10;46.50;;;;;;5012684;28;19909;-65
2022/07/12 01:20:57;;;;;;;;;;;23.20;46.40;;;;;;5012632;28;19986;-66
2022/07/12 01:23:23;;;;;;;;;;;23.20;46.20;;;;;;5012503;28;20350;-65
2022/07/12 01:25:49;;;;;;;;;;;23.20;46.10;;;;;;5012482;28;20273;-63
2022/07/12 01:28:15;;;;;;;;;;;23.20;45.50;;;;;;5012534;28;19921;-64
2022/07/12 01:30:41;;;;;;;;;;;23.00;46.10;;;;;;5012495;28;20028;-65
2022/07/12 01:33:06;;;;;;;;;;;23.00;46.30;;;;;;5012443;28;19909;-64
2022/07/12 01:35:32;;;;;;;;;;;23.00;46.10;;;;;;5012290;28;20382;-65
2022/07/12 01:37:58;;;;;;;;;;;23.00;46.20;;;;;;5012376;28;20012;-65
2022/07/12 01:40:24;;;;;;;;;;;23.10;45.90;;;;;;5012209;28;19918;-65
2022/07/12 01:42:51;;;;;;;;;;;22.80;46.20;;;;;;5013111;28;19941;-65
2022/07/12 01:45:16;;;;;;;;;;;22.90;46.10;;;;;;5016348;28;19910;-65
2022/07/12 01:47:42;;;;;;;;;;;23.00;46.00;;;;;;5016547;28;20008;-65
2022/07/12 01:50:08;;;;;;;;;;;23.00;46.10;;;;;;5016326;28;20369;-65
2022/07/12 01:52:34;;;;;;;;;;;23.00;46.00;;;;;;5016197;28;19913;-65
2022/07/12 01:55:00;;;;;;;;;;;22.90;46.00;;;;;;5016207;28;19921;-64
2022/07/12 01:57:26;;;;;;;;;;;22.90;45.90;;;;;;5016077;28;20246;-65
2022/07/12 01:59:52;;;;;;;;;;;22.90;45.90;;;;;;5016184;28;20277;-65
2022/07/12 02:02:17;;;;;;;;;;;22.90;45.60;;;;;;5016206;28;19921;-64
2022/07/12 02:04:44;;;;;;;;;;;23.00;46.20;;;;;;5016093;28;19952;-64
2022/07/12 02:07:09;;;;;;;;;;;23.00;45.60;;;;;;5016119;28;19909;-64
2022/07/12 02:09:35;;;;;;;;;;;22.90;45.80;;;;;;5015604;28;20015;-64
2022/07/12 02:12:01;;;;;;;;;;;22.80;46.40;;;;;;5016049;28;19920;-65
2022/07/12 02:14:26;;;;;;;;;;;22.80;46.10;;;;;;5015877;28;20366;-64
2022/07/12 02:16:52;;;;;;;;;;;22.80;46.20;;;;;;5015837;28;19909;-64
2022/07/12 02:19:18;;;;;;;;;;;22.80;46.20;;;;;;5015857;28;19917;-65
2022/07/12 02:21:43;;;;;;;;;;;22.70;46.30;;;;;;5015665;28;19979;-65
2022/07/12 02:24:09;;;;;;;;;;;22.60;46.60;;;;;;5015612;28;19916;-64
2022/07/12 02:26:38;;;;;;;;;;;22.60;47.00;;;;;;5015916;28;20456;-64
2022/07/12 02:29:04;;;;;;;;;;;22.50;46.80;;;;;;5015645;28;20369;-64
2022/07/12 02:31:30;;;;;;;;;;;22.50;46.90;;;;;;5015640;28;19945;-64
2022/07/12 02:33:55;;;;;;;;;;;22.60;46.80;;;;;;5015481;28;20011;-66
2022/07/12 02:36:21;;;;;;;;;;;22.60;46.80;;;;;;5015487;28;20036;-68
2022/07/12 02:38:47;;;;;;;;;;;22.60;46.80;;;;;;5015440;28;19920;-64
2022/07/12 02:41:12;;;;;;;;;;;22.70;46.90;;;;;;5015411;28;20382;-64
2022/07/12 02:43:38;;;;;;;;;;;22.70;46.80;;;;;;5015424;28;20373;-64
2022/07/12 02:46:05;;;;;;;;;;;22.60;46.70;;;;;;5015220;28;19916;-65
2022/07/12 02:48:31;;;;;;;;;;;22.60;46.40;;;;;;5015656;28;19909;-64
2022/07/12 02:50:56;;;;;;;;;;;22.50;46.50;;;;;;5015204;28;20373;-65
2022/07/12 02:53:22;;;;;;;;;;;22.40;46.50;;;;;;5015287;28;19913;-64
2022/07/12 02:55:47;;;;;;;;;;;22.50;46.40;;;;;;5014257;28;19909;-64
2022/07/12 02:58:13;;;;;;;;;;;22.50;46.40;;;;;;5015057;28;20371;-64
2022/07/12 03:00:39;;;;;;;;;;;22.60;46.30;;;;;;5015017;28;19918;-64
2022/07/12 03:03:07;;;;;;;;;;;22.70;45.90;;;;;;5001210;28;19963;-64
2022/07/12 03:05:36;;;;;;;;;;;22.70;45.80;;;;;;5015047;28;19917;-64
2022/07/12 03:08:05;;;;;;;;;;;22.70;46.20;;;;;;5014782;28;19922;-64
2022/07/12 03:10:31;;;;;;;;;;;22.60;46.10;;;;;;5014944;28;19960;-64
2022/07/12 03:12:56;;;;;;;;;;;22.60;46.10;;;;;;5014948;28;19960;-64
2022/07/12 03:15:22;;;;;;;;;;;22.60;46.20;;;;;;5015241;28;19964;-64
2022/07/12 03:17:47;;;;;;;;;;;22.60;46.00;;;;;;5015341;28;19916;-64
2022/07/12 03:20:14;;;;;;;;;;;22.70;45.80;;;;;;5015163;28;19921;-64
2022/07/12 03:22:48;;;;;;;;;;;22.70;46.00;;;;;;5014627;28;19914;-64
2022/07/12 03:25:14;;;;;;;;;;;22.70;45.70;;;;;;5014410;28;19916;-64
2022/07/12 03:27:40;;;;;;;;;;;22.80;45.90;;;;;;5014551;28;19910;-64
2022/07/12 03:30:05;;;;;;;;;;;22.80;45.70;;;;;;5014350;28;19948;-64
2022/07/12 03:32:31;;;;;;;;;;;22.70;45.60;;;;;;5014486;28;19917;-64
2022/07/12 03:34:57;;;;;;;;;;;22.80;45.70;;;;;;5014383;28;19921;-64
2022/07/12 03:37:22;;;;;;;;;;;22.70;45.90;;;;;;5014265;28;19913;-64
2022/07/12 03:39:48;;;;;;;;;;;22.70;45.80;;;;;;5014273;28;20379;-65
2022/07/12 03:42:13;;;;;;;;;;;22.70;45.80;;;;;;5014298;28;19917;-64
2022/07/12 03:44:39;;;;;;;;;;;22.60;45.80;;;;;;5014733;28;20270;-64
2022/07/12 03:47:05;;;;;;;;;;;22.50;46.30;;;;;;5014093;28;19919;-64
2022/07/12 03:49:30;;;;;;;;;;;22.50;46.10;;;;;;5014138;28;19910;-64
2022/07/12 03:51:56;;;;;;;;;;;22.50;46.30;;;;;;5014044;28;19916;-64
2022/07/12 03:54:21;;;;;;;;;;;22.50;46.30;;;;;;5014066;28;19920;-64
2022/07/12 03:59:31;;;;;;;;;;;22.70;46.10;;;;;;5013936;28;20424;-65
2022/07/12 04:01:57;;;;;;;;;;;22.70;46.10;;;;;;5013883;28;19917;-64
2022/07/12 04:04:23;;;;;;;;;;;22.50;46.40;;;;;;5013614;28;19914;-64
2022/07/12 04:06:48;;;;;;;;;;;22.50;46.60;;;;;;5012753;28;19959;-64
2022/07/12 04:09:14;;;;;;;;;;;22.50;46.60;;;;;;5013590;28;19921;-64
2022/07/12 04:11:40;;;;;;;;;;;22.40;46.80;;;;;;5013700;28;19919;-64
2022/07/12 04:14:05;;;;;;;;;;;22.00;47.50;;;;;;5013746;28;20416;-64
2022/07/12 04:16:31;;;;;;;;;;;22.10;47.60;;;;;;5013330;28;20004;-64
2022/07/12 04:18:57;;;;;;;;;;;22.10;47.50;;;;;;5013573;28;20342;-66
2022/07/12 04:21:22;;;;;;;;;;;22.20;47.50;;;;;;5013524;28;19929;-64
2022/07/12 04:23:48;;;;;;;;;;;22.20;47.50;;;;;;5013449;28;19972;-64
2022/07/12 04:26:14;;;;;;;;;;;22.10;47.40;;;;;;5013379;28;19996;-65
2022/07/12 04:28:39;;;;;;;;;;;22.30;47.20;;;;;;5013322;28;19913;-64
2022/07/12 04:31:06;;;;;;;;;;;22.30;47.10;;;;;;5013507;28;20552;-64
2022/07/12 04:33:32;;;;;;;;;;;22.30;47.00;;;;;;5013150;28;19919;-64
2022/07/12 04:35:57;;;;;;;;;;;22.30;47.20;;;;;;5013323;28;20286;-64
2022/07/12 04:38:23;;;;;;;;;;;22.40;47.00;;;;;;5013258;28;19910;-64
2022/07/12 04:40:48;;;;;;;;;;;22.40;47.20;;;;;;5013100;28;19917;-64
2022/07/12 04:43:14;;;;;;;;;;;22.40;47.10;;;;;;5013192;28;19917;-64
2022/07/12 04:45:43;;;;;;;;;;;22.40;46.90;;;;;;5013010;28;19918;-64
2022/07/12 04:48:12;;;;;;;;;;;22.40;46.80;;;;;;5013014;28;19920;-64
2022/07/12 04:50:38;;;;;;;;;;;22.40;46.80;;;;;;5013112;28;19921;-64
2022/07/12 04:53:03;;;;;;;;;;;22.50;46.60;;;;;;5012871;28;19913;-64
2022/07/12 04:55:29;;;;;;;;;;;22.60;46.60;;;;;;5012962;28;19916;-64
2022/07/12 04:57:55;;;;;;;;;;;22.60;46.50;;;;;;5012713;28;20281;-64
2022/07/12 05:00:20;;;;;;;;;;;22.70;46.20;;;;;;5012670;28;20010;-64
2022/07/12 05:02:46;;;;;;;;;;;22.60;46.20;;;;;;5013064;28;19913;-64
2022/07/12 05:05:12;;;;;;;;;;;22.60;46.30;;;;;;5012936;28;20005;-65
2022/07/12 05:07:37;;;;;;;;;;;22.60;46.40;;;;;;5012772;28;19941;-64
2022/07/12 05:10:03;;;;;;;;;;;22.70;46.30;;;;;;5012647;28;19944;-64
2022/07/12 05:12:29;;;;;;;;;;;22.80;46.20;;;;;;5012778;28;19992;-64
2022/07/12 05:14:54;;;;;;;;;;;22.70;46.30;;;;;;5012552;28;19913;-64
2022/07/12 05:17:20;;;;;;;;;;;22.80;46.20;;;;;;5012395;28;19916;-65
2022/07/12 05:19:45;;;;;;;;;;;22.70;46.50;;;;;;5012806;28;19920;-64
2022/07/12 05:22:11;;;;;;;;;;;22.80;46.40;;;;;;5012380;28;19921;-65
2022/07/12 05:24:36;;;;;;;;;;;22.70;46.40;;;;;;5012459;28;20361;-65
2022/07/12 05:27:02;;;;;;;;;;;22.80;46.50;;;;;;5012411;28;19913;-64
2022/07/12 05:29:28;;;;;;;;;;;22.70;46.30;;;;;;5012486;28;19968;-65
2022/07/12 05:31:57;;;;;;;;;;;22.70;46.60;;;;;;5012445;28;19956;-63
2022/07/12 05:34:23;;;;;;;;;;;22.80;46.40;;;;;;5012528;28;20350;-63
2022/07/12 05:36:48;;;;;;;;;;;22.80;46.20;;;;;;5012614;28;19910;-63
2022/07/12 05:39:14;;;;;;;;;;;22.90;45.90;;;;;;5012970;28;19949;-63
2022/07/12 05:41:39;;;;;;;;;;;22.90;45.90;;;;;;5012421;28;20358;-64
2022/07/12 05:44:05;;;;;;;;;;;23.00;45.50;;;;;;5010977;28;19916;-64
2022/07/12 05:46:30;;;;;;;;;;;23.10;45.60;;;;;;5012191;28;19913;-64
2022/07/12 05:48:56;;;;;;;;;;;23.20;45.30;;;;;;5012664;28;19913;-64
2022/07/12 05:54:06;;;;;;;;;;;23.70;44.20;;;;;;5011989;28;19928;-63
2022/07/12 05:56:31;;;;;;;;;;;23.90;44.20;;;;;;5012408;28;20016;-63
2022/07/12 05:58:57;;;;;;;;;;;24.10;44.00;;;;;;5012424;28;19910;-62
2022/07/12 06:01:22;;;;;;;;;;;24.50;43.40;;;;;;5012384;28;19917;-64
2022/07/12 06:03:48;;;;;;;;;;;24.60;42.60;;;;;;5012463;28;19913;-64
2022/07/12 06:06:13;;;;;;;;;;;24.70;42.00;;;;;;5012237;28;19936;-63
2022/07/12 06:08:39;;;;;;;;;;;24.80;41.70;;;;;;5012057;28;20298;-64
2022/07/12 06:11:04;;;;;;;;;;;24.70;41.60;;;;;;5012162;28;19932;-62
2022/07/12 06:13:30;;;;;;;;;;;24.70;42.10;;;;;;5011893;28;19913;-64
2022/07/12 06:15:56;;;;;;;;;;;24.70;42.10;;;;;;5012268;28;19932;-65
2022/07/12 06:18:21;;;;;;;;;;;24.60;41.60;;;;;;5012446;28;19910;-64
2022/07/12 06:20:47;;;;;;;;;;;24.80;42.30;;;;;;5012204;28;20033;-63
2022/07/12 06:23:12;;;;;;;;;;;24.90;41.90;;;;;;5012065;28;20322;-66
2022/07/12 06:25:38;;;;;;;;;;;25.10;41.70;;;;;;5012416;28;19984;-67
2022/07/12 06:28:04;;;;;;;;;;;25.10;41.20;;;;;;5012009;28;19940;-68
2022/07/12 06:30:30;;;;;;;;;;;25.20;40.00;;;;;;5014995;28;20319;-66
2022/07/12 06:32:55;;;;;;;;;;;25.30;38.80;;;;;;5016239;28;19949;-64
2022/07/12 06:35:21;;;;;;;;;;;25.60;39.70;;;;;;5015721;28;19910;-65
2022/07/12 06:37:47;;;;;;;;;;;25.90;38.90;;;;;;5015510;28;20362;-67
2022/07/12 06:40:15;;;;;;;;;;;26.10;38.50;;;;;;5015558;28;19914;-65
2022/07/12 06:42:40;;;;;;;;;;;26.20;38.10;;;;;;5015202;28;20277;-68
2022/07/12 06:45:06;;;;;;;;;;;26.50;38.20;;;;;;5015655;28;20036;-62
2022/07/12 06:47:32;;;;;;;;;;;26.90;37.80;;;;;;5015370;28;20345;-66
2022/07/12 06:49:57;;;;;;;;;;;27.10;37.20;;;;;;5015166;28;19909;-64
2022/07/12 06:52:23;;;;;;;;;;;27.30;36.10;;;;;;5015223;28;20063;-65
2022/07/12 06:54:48;;;;;;;;;;;27.40;36.00;;;;;;5015206;28;20004;-66
2022/07/12 06:57:14;;;;;;;;;;;27.50;36.30;;;;;;5015048;28;19913;-69
2022/07/12 06:59:40;;;;;;;;;;;27.60;35.00;;;;;;5015000;28;19917;-58
2022/07/12 07:02:05;;;;;;;;;;;27.70;34.60;;;;;;5015038;28;19941;-62
2022/07/12 07:04:31;;;;;;;;;;;27.80;34.40;;;;;;5014827;28;19921;-72
2022/07/12 07:06:56;;;;;;;;;;;27.90;34.70;;;;;;5014879;28;20004;-60
2022/07/12 07:09:22;;;;;;;;;;;27.90;34.70;;;;;;5014655;28;19943;-61
2022/07/12 07:11:47;;;;;;;;;;;27.80;34.60;;;;;;5014660;28;19937;-60
2022/07/12 07:14:13;;;;;;;;;;;27.80;34.50;;;;;;5014735;28;20341;-60
2022/07/12 07:16:38;;;;;;;;;;;27.60;34.50;;;;;;5014585;28;19909;-61
2022/07/12 07:19:05;;;;;;;;;;;27.40;34.30;;;;;;5014728;28;20413;-61
2022/07/12 07:21:31;;;;;;;;;;;27.20;35.20;;;;;;5014544;28;19924;-59
2022/07/12 07:23:57;;;;;;;;;;;27.10;35.30;;;;;;5014544;28;19914;-62
2022/07/12 07:26:22;;;;;;;;;;;27.10;35.50;;;;;;5014330;28;19960;-61
2022/07/12 07:31:36;;;;;;;;;;;26.90;35.90;;;;;;5014865;28;20278;-60
2022/07/12 07:34:01;;;;;;;;;;;26.90;35.90;;;;;;5014196;28;20497;-62
2022/07/12 07:36:27;;;;;;;;;;;26.80;36.00;;;;;;5014351;28;19918;-63
2022/07/12 07:38:53;;;;;;;;;;;26.90;36.50;;;;;;5014045;28;19917;-62
2022/07/12 07:41:18;;;;;;;;;;;27.10;36.80;;;;;;5014102;28;20337;-62
2022/07/12 07:43:44;;;;;;;;;;;27.30;35.40;;;;;;5014119;28;19915;-62
2022/07/12 07:46:09;;;;;;;;;;;27.60;35.20;;;;;;5014055;28;19921;-60
2022/07/12 07:48:35;;;;;;;;;;;27.90;35.10;;;;;;5014157;28;19940;-60
2022/07/12 07:51:01;;;;;;;;;;;28.10;34.60;;;;;;5013990;28;20438;-62
2022/07/12 07:53:26;;;;;;;;;;;28.30;34.40;;;;;;5013830;28;19914;-59
2022/07/12 07:55:52;;;;;;;;;;;28.50;34.60;;;;;;5013825;28;19918;-66
2022/07/12 07:58:17;;;;;;;;;;;28.60;34.20;;;;;;5013888;28;20350;-58
2022/07/12 08:00:43;;;;;;;;;;;28.60;34.20;;;;;;5013992;28;19922;-58
2022/07/12 08:03:09;;;;;;;;;;;28.60;34.00;;;;;;5013793;28;20324;-59
2022/07/12 08:05:34;;;;;;;;;;;28.40;33.90;;;;;;5013505;28;19917;-58
2022/07/12 08:08:00;;;;;;;;;;;28.20;34.80;;;;;;5012053;28;19920;-57
2022/07/12 08:10:25;;;;;;;;;;;28.00;36.30;;;;;;5013191;28;19925;-57
2022/07/12 08:12:51;;;;;;;;;;;27.90;37.10;;;;;;5013400;28;19910;-56
2022/07/12 08:15:17;;;;;;;;;;;27.80;37.40;;;;;;5013398;28;20281;-56
2022/07/12 08:17:42;;;;;;;;;;;27.80;36.70;;;;;;5013511;28;19910;-56
2022/07/12 08:20:08;;;;;;;;;;;27.80;37.00;;;;;;5013171;28;19910;-63
2022/07/12 08:22:33;;;;;;;;;;;27.90;36.90;;;;;;5013122;28;19928;-57
2022/07/12 08:24:59;;;;;;;;;;;28.00;36.30;;;;;;5013125;28;20004;-57
2022/07/12 08:27:25;;;;;;;;;;;27.80;36.90;;;;;;5013206;28;19909;-57
2022/07/12 08:29:50;;;;;;;;;;;27.90;36.70;;;;;;5012227;28;19918;-60
2022/07/12 08:32:16;;;;;;;;;;;27.90;35.60;;;;;;5012022;28;19913;-60
2022/07/12 08:34:42;;;;;;;;;;;27.80;35.40;;;;;;5012028;28;19932;-61
2022/07/12 08:37:08;;;;;;;;;;;27.70;36.20;;;;;;5012290;28;19918;-61
2022/07/12 08:39:33;;;;;;;;;;;27.60;37.00;;;;;;5012056;28;19995;-61
2022/07/12 08:41:59;;;;;;;;;;;27.60;37.20;;;;;;5011603;28;19924;-65
2022/07/12 08:44:25;;;;;;;;;;;27.60;36.70;;;;;;5011702;28;19967;-62
2022/07/12 08:46:52;;;;;;;;;;;27.70;36.20;;;;;;5011676;28;20000;-62
2022/07/12 08:49:18;;;;;;;;;;;27.70;35.80;;;;;;5011798;28;20324;-61
2022/07/12 08:51:43;;;;;;;;;;;27.70;36.40;;;;;;5011947;28;19921;-65
2022/07/12 08:54:10;;;;;;;;;;;27.80;36.20;;;;;;5011240;28;20365;-67
2022/07/12 08:56:37;;;;;;;;;;;27.80;35.90;;;;;;5011606;28;19924;-58
2022/07/12 08:59:09;;;;;;;;;;;27.90;35.80;;;;;;5012029;28;20336;-60
2022/07/12 09:01:41;;;;;;;;;;;27.80;36.10;;;;;;5012446;28;20281;-60
2022/07/12 09:04:23;;;;;;;;;;;27.90;36.00;;;;;;5012682;28;19909;-60
2022/07/12 09:06:49;;;;;;;;;;;28.00;36.20;;;;;;5012753;28;19913;-61
2022/07/12 09:09:28;;;;;;;;;;;28.10;36.50;;;;;;5012543;28;19921;-65
2022/07/12 09:11:53;;;;;;;;;;;28.20;36.20;;;;;;5012826;28;19913;-62
2022/07/12 09:14:20;;;;;;;;;;;28.20;35.40;;;;;;5012660;28;20444;-62
2022/07/12 09:17:09;;;;;;;;;;;28.20;35.80;;;;;;5012508;28;19971;-59
2022/07/12 09:19:38;;;;;;;;;;;28.20;36.20;;;;;;5012152;28;19921;-60
2022/07/12 09:22:05;;;;;;;;;;;28.30;36.20;;;;;;5012378;28;20321;-62
2022/07/12 09:24:31;;;;;;;;;;;28.40;35.90;;;;;;5012215;28;19960;-62
2022/07/12 09:26:59;;;;;;;;;;;28.40;35.90;;;;;;5011738;28;19917;-61
2022/07/12 09:29:25;;;;;;;;;;;28.40;36.10;;;;;;5012150;28;20027;-60
2022/07/12 09:37:20;;;;;;;;;;;28.40;35.90;;;;;;5012710;28;20016;-61
2022/07/12 09:39:47;;;;;;;;;;;28.40;36.20;;;;;;5012474;28;19960;-65
2022/07/12 09:42:13;;;;;;;;;;;28.50;36.20;;;;;;5011894;28;20348;-62
2022/07/12 09:44:40;;;;;;;;;;;28.50;36.00;;;;;;5012289;28;20266;-64
2022/07/12 09:47:13;;;;;;;;;;;28.50;36.00;;;;;;5012525;28;19948;-61
2022/07/12 09:49:39;;;;;;;;;;;28.50;36.10;;;;;;5012259;28;19914;-63
2022/07/12 09:52:05;;;;;;;;;;;28.50;36.70;;;;;;5012059;28;19914;-62
2022/07/12 09:54:31;;;;;;;;;;;28.40;37.50;;;;;;5012034;28;20381;-68
2022/07/12 09:56:58;;;;;;;;;;;28.30;37.20;;;;;;5012154;28;19976;-62
2022/07/12 09:59:27;;;;;;;;;;;28.20;37.60;;;;;;5011929;28;20002;-62
2022/07/12 10:01:55;;;;;;;;;;;28.10;36.80;;;;;;5011769;28;19924;-61
2022/07/12 10:04:21;;;;;;;;;;;28.00;37.70;;;;;;5011677;28;20258;-63
2022/07/12 10:06:47;;;;;;;;;;;27.90;38.20;;;;;;5015687;28;19917;-62
2022/07/12 10:09:16;;;;;;;;;;;27.80;38.60;;;;;;5015550;28;19921;-62
2022/07/12 10:11:42;;;;;;;;;;;27.80;38.10;;;;;;5015809;28;19957;-65
2022/07/12 10:14:12;;;;;;;;;;;27.70;38.50;;;;;;5015706;28;20428;-63
2022/07/12 10:16:41;;;;;;;;;;;27.60;38.80;;;;;;5015613;28;19932;-64
2022/07/12 10:19:24;;;;;;;;;;;27.60;38.80;;;;;;5015482;28;19924;-62
2022/07/12 10:21:51;;;;;;;;;;;27.60;38.80;;;;;;5015390;28;20032;-62
2022/07/12 10:24:31;;;;;;;;;;;27.60;39.30;;;;;;5015461;28;19917;-61
2022/07/12 10:27:20;;;;;;;;;;;27.60;39.30;;;;;;5015288;28;19917;-63
2022/07/12 10:29:47;;;;;;;;;;;27.60;39.80;;;;;;5015156;28;19928;-61
2022/07/12 10:32:26;;;;;;;;;;;27.60;38.70;;;;;;5015278;28;20055;-63
2022/07/12 10:35:05;;;;;;;;;;;27.60;38.70;;;;;;5015246;28;20377;-62
2022/07/12 10:37:31;;;;;;;;;;;27.60;38.50;;;;;;5015265;28;19916;-64
2022/07/12 10:40:12;;;;;;;;;;;27.70;38.10;;;;;;5015199;28;19964;-62
2022/07/12 10:42:39;;;;;;;;;;;27.60;39.00;;;;;;5015453;28;19979;-63
2022/07/12 10:45:14;;;;;;;;;;;27.60;39.50;;;;;;5015094;28;19913;-63
2022/07/12 10:47:52;;;;;;;;;;;27.60;39.30;;;;;;5015256;28;19948;-63
2022/07/12 10:50:18;;;;;;;;;;;27.70;38.20;;;;;;5018791;28;19909;-64
2022/07/12 10:52:43;;;;;;;;;;;27.80;39.40;;;;;;5021448;28;19918;-64
2022/07/12 10:55:09;;;;;;;;;;;27.80;39.20;;;;;;5020407;28;19913;-65
2022/07/12 10:57:40;;;;;;;;;;;27.90;39.90;;;;;;5017547;28;19918;-65
2022/07/12 11:00:07;;;;;;;;;;;27.90;39.70;;;;;;5015195;28;20012;-64
2022/07/12 11:02:32;;;;;;;;;;;27.80;39.30;;;;;;5014704;28;19940;-64
2022/07/12 11:04:58;;;;;;;;;;;27.70;38.40;;;;;;5012908;28;19913;-61
2022/07/12 11:07:24;;;;;;;;;;;27.70;39.10;;;;;;5014130;28;20366;-59
2022/07/12 11:09:53;;;;;;;;;;;27.70;39.50;;;;;;5014060;28;19928;-60
2022/07/12 11:12:18;;;;;;;;;;;27.70;39.50;;;;;;5008288;28;19972;-59
2022/07/12 11:14:45;;;;;;;;;;;27.70;39.50;;;;;;5014433;28;19976;-59
2022/07/12 11:17:10;;;;;;;;;;;27.70;39.90;;;;;;5013313;28;19923;-60
2022/07/12 11:19:36;;;;;;;;;;;27.70;40.80;;;;;;5014194;28;20015;-59
2022/07/12 11:22:02;;;;;;;;;;;27.70;42.00;;;;;;5014275;28;20456;-59
2022/07/12 11:24:28;;;;;;;;;;;27.60;42.20;;;;;;5005584;28;19914;-61
2022/07/12 11:26:54;;;;;;;;;;;27.50;42.90;;;;;;5008930;28;19953;-59
2022/07/12 11:29:20;;;;;;;;;;;27.50;42.50;;;;;;5013879;28;20397;-58
2022/07/12 11:31:46;;;;;;;;;;;27.50;41.40;;;;;;5013948;28;20412;-58
2022/07/12 11:34:38;;;;;;;;;;;27.40;40.50;;;;;;5013402;28;19956;-60
2022/07/12 11:37:04;;;;;;;;;;;27.30;42.10;;;;;;5011635;28;19960;-60
2022/07/12 11:39:29;;;;;;;;;;;27.30;43.00;;;;;;5013480;28;19910;-61
2022/07/12 11:41:58;;;;;;;;;;;27.30;43.20;;;;;;5003654;28;19918;-68
2022/07/12 11:44:43;;;;;;;;;;;27.30;43.10;;;;;;5013363;28;19920;-66
2022/07/12 11:47:08;;;;;;;;;;;27.40;43.80;;;;;;5006147;28;19948;-64
2022/07/12 11:49:34;;;;;;;;;;;27.40;43.70;;;;;;5013414;28;19913;-63
2022/07/12 11:52:00;;;;;;;;;;;27.50;44.20;;;;;;5013668;28;19913;-60
2022/07/12 11:54:25;;;;;;;;;;;27.50;43.90;;;;;;5010586;28;20347;-63
2022/07/12 11:57:04;;;;;;;;;;;27.40;44.70;;;;;;5009715;28;19921;-59
2022/07/12 11:59:29;;;;;;;;;;;27.40;45.30;;;;;;5006771;28;19909;-61
2022/07/12 12:02:04;;;;;;;;;;;27.40;46.60;;;;;;5013059;28;20016;-62
2022/07/12 12:04:30;;;;;;;;;;;27.40;46.80;;;;;;5011176;28;19996;-61
2022/07/12 12:06:55;;;;;;;;;;;27.40;47.50;;;;;;5008263;28;20338;-61
2022/07/12 12:09:21;;;;;;;;;;;27.40;47.80;;;;;;5012911;28;20012;-64
2022/07/12 12:11:46;;;;;;;;;;;27.40;46.90;;;;;;5012838;28;19917;-62
2022/07/12 12:14:12;;;;;;;;;;;27.40;46.20;;;;;;5012975;28;19956;-61
2022/07/12 12:16:38;;;;;;;;;;;27.40;47.60;;;;;;4999179;28;20263;-63
2022/07/12 12:19:10;;;;;;;;;;;27.40;46.70;;;;;;5012911;28;19914;-65
2022/07/12 12:21:35;;;;;;;;;;;27.30;46.40;;;;;;5012538;28;19941;-64
2022/07/12 12:24:10;;;;;;;;;;;27.30;46.90;;;;;;5012756;28;20313;-62
2022/07/12 12:26:36;;;;;;;;;;;27.40;46.90;;;;;;5011751;28;20021;-65
2022/07/12 12:29:02;;;;;;;;;;;27.30;46.70;;;;;;4999104;28;20336;-62
2022/07/12 12:31:28;;;;;;;;;;;27.40;47.00;;;;;;5012694;28;20420;-63
2022/07/12 12:33:56;;;;;;;;;;;27.40;47.90;;;;;;5007724;28;19914;-64
2022/07/12 12:36:26;;;;;;;;;;;27.40;46.70;;;;;;5001028;28;19972;-63
2022/07/12 12:38:51;;;;;;;;;;;27.40;47.70;;;;;;5011861;28;19980;-66
2022/07/12 12:41:17;;;;;;;;;;;27.30;46.80;;;;;;5011799;28;20370;-64
2022/07/12 12:43:43;;;;;;;;;;;27.30;48.40;;;;;;5012002;28;19956;-62
2022/07/12 12:46:09;;;;;;;;;;;27.30;48.30;;;;;;5011798;28;19963;-62
2022/07/12 12:48:35;;;;;;;;;;;27.30;48.60;;;;;;5012605;28;19913;-61
2022/07/12 12:51:05;;;;;;;;;;;27.30;49.30;;;;;;5011802;28;20003;-62
2022/07/12 12:53:30;;;;;;;;;;;27.30;49.40;;;;;;5012432;28;19913;-64
2022/07/12 12:55:56;;;;;;;;;;;27.30;49.00;;;;;;5012066;28;20000;-64
2022/07/12 12:58:25;;;;;;;;;;;27.30;48.40;;;;;;5012214;28;19917;-63
2022/07/12 13:00:51;;;;;;;;;;;27.30;48.20;;;;;;5002170;28;19957;-63
2022/07/12 13:03:18;;;;;;;;;;;27.30;48.50;;;;;;5012289;28;19913;-63
2022/07/12 13:05:43;;;;;;;;;;;27.30;47.30;;;;;;5011122;28;19910;-59
2022/07/12 13:08:10;;;;;;;;;;;27.30;47.60;;;;;;5011450;28;20325;-62
2022/07/12 13:10:35;;;;;;;;;;;27.30;48.30;;;;;;5011341;28;19948;-64
2022/07/12 13:13:04;;;;;;;;;;;27.30;48.50;;;;;;5011470;28;20371;-65
2022/07/12 13:15:30;;;;;;;;;;;27.30;49.50;;;;;;5012382;28;19909;-62
2022/07/12 13:17:56;;;;;;;;;;;27.30;48.60;;;;;;5012100;28;19960;-62
2022/07/12 13:20:23;;;;;;;;;;;27.30;48.10;;;;;;5011339;28;20266;-61
2022/07/12 13:22:48;;;;;;;;;;;27.30;48.40;;;;;;5011340;28;19921;-61
2022/07/12 13:25:14;;;;;;;;;;;27.30;48.10;;;;;;5011674;28;19913;-62
2022/07/12 13:27:40;;;;;;;;;;;27.30;48.50;;;;;;5011017;28;19920;-61
2022/07/12 13:30:07;;;;;;;;;;;27.30;51.90;;;;;;5011161;28;19909;-64
2022/07/12 13:32:33;;;;;;;;;;;27.30;51.70;;;;;;4998308;28;20012;-60
2022/07/12 13:34:59;;;;;;;;;;;27.40;52.10;;;;;;4999134;28;19914;-61
2022/07/12 13:37:25;;;;;;;;;;;27.30;53.70;;;;;;5011068;28;20115;-62
2022/07/12 13:42:35;;;;;;;;;;;27.30;52.90;;;;;;5002251;28;20439;-61
2022/07/12 13:45:00;;;;;;;;;;;27.40;52.40;;;;;;5009372;28;19921;-62
2022/07/12 13:47:26;;;;;;;;;;;27.40;52.50;;;;;;5010017;28;20286;-61
2022/07/12 13:49:52;;;;;;;;;;;27.40;53.80;;;;;;5010680;28;20293;-62
2022/07/12 13:52:18;;;;;;;;;;;27.30;53.70;;;;;;5010815;28;19913;-62
2022/07/12 13:54:43;;;;;;;;;;;27.30;54.40;;;;;;5009509;28;20369;-64
2022/07/12 13:57:10;;;;;;;;;;;27.30;54.40;;;;;;5008629;28;19921;-64
2022/07/12 13:59:36;;;;;;;;;;;27.30;53.80;;;;;;5008694;28;19913;-63
2022/07/12 14:02:01;;;;;;;;;;;27.30;56.00;;;;;;5009353;28;20286;-63
2022/07/12 14:04:27;;;;;;;;;;;27.30;55.50;;;;;;5009163;28;19914;-62
2022/07/12 14:06:52;;;;;;;;;;;27.20;55.40;;;;;;5009625;28;19967;-65
2022/07/12 14:09:18;;;;;;;;;;;27.20;55.10;;;;;;5009576;28;19924;-63
2022/07/12 14:11:44;;;;;;;;;;;27.20;55.40;;;;;;5010127;28;19996;-63
2022/07/12 14:14:09;;;;;;;;;;;27.30;54.70;;;;;;5010465;28;19968;-64
2022/07/12 14:16:35;;;;;;;;;;;27.30;55.20;;;;;;5010183;28;19964;-64
2022/07/12 14:19:03;;;;;;;;;;;27.30;55.40;;;;;;5009982;28;20389;-63
2022/07/12 14:21:29;;;;;;;;;;;27.30;56.00;;;;;;5010459;28;20258;-65
2022/07/12 14:24:01;;;;;;;;;;;27.20;55.20;;;;;;5010323;28;19909;-63
2022/07/12 14:26:27;;;;;;;;;;;27.20;55.50;;;;;;5010292;28;19952;-65
2022/07/12 14:28:53;;;;;;;;;;;27.30;55.00;;;;;;5010521;28;20008;-62